Time,TemperatureF,DewpointF,PressureIn,WindDirection,WindDirectionDegrees,WindSpeedMPH,WindSpeedGustMPH,Humidity,HourlyPrecipIn,Conditions,Clouds,dailyrainin,SolarRadiationWatts/m^2,SoftwareType,DateUTC
2013-04-20 00:12:00,27.0,18.0,-100.00,West,276,8.0,11.0,69,0.00,,,0.00,0.000000,,2013-04-20 06:12:00,
2013-04-20 00:21:00,27.0,18.0,-100.00,West,276,8.0,11.0,69,0.00,,,0.00,0.000000,,2013-04-20 06:21:00,
2013-04-20 00:31:00,27.0,18.0,-100.00,West,276,8.0,11.0,69,0.00,,,0.00,0.000000,,2013-04-20 06:31:00,
2013-04-20 00:42:00,27.0,18.0,-100.00,West,276,8.0,11.0,69,0.00,,,0.00,0.000000,,2013-04-20 06:42:00,
2013-04-20 01:11:00,25.0,21.0,-100.00,West,277,8.0,14.0,84,0.00,,,0.00,0.000000,,2013-04-20 07:11:00,
2013-04-20 01:21:00,25.0,21.0,-100.00,West,277,8.0,14.0,84,0.00,,,0.00,0.000000,,2013-04-20 07:21:00,
2013-04-20 01:32:00,25.0,21.0,-100.00,West,277,8.0,14.0,84,0.00,,,0.00,0.000000,,2013-04-20 07:32:00,
2013-04-20 01:42:00,25.0,21.0,-100.00,West,277,8.0,14.0,84,0.00,,,0.00,0.000000,,2013-04-20 07:42:00,
2013-04-20 02:11:00,25.0,22.0,-100.00,West,280,6.0,15.0,88,0.00,,,0.00,0.000000,,2013-04-20 08:11:00,
2013-04-20 02:21:00,25.0,22.0,-100.00,West,280,6.0,15.0,88,0.00,,,0.00,0.000000,,2013-04-20 08:21:00,
2013-04-20 02:31:00,25.0,22.0,-100.00,West,280,6.0,15.0,88,0.00,,,0.00,0.000000,,2013-04-20 08:31:00,
2013-04-20 02:42:00,25.0,22.0,-100.00,West,280,6.0,15.0,88,0.00,,,0.00,0.000000,,2013-04-20 08:42:00,
2013-04-20 03:12:00,24.0,23.0,-100.00,NW,310,5.0,10.0,97,0.00,,,0.00,0.000000,,2013-04-20 09:12:00,
2013-04-20 03:21:00,24.0,23.0,-100.00,NW,310,5.0,10.0,97,0.00,,,0.00,0.000000,,2013-04-20 09:21:00,
2013-04-20 03:32:00,24.0,23.0,-100.00,NW,310,5.0,10.0,97,0.00,,,0.00,0.000000,,2013-04-20 09:32:00,
2013-04-20 03:43:00,24.0,23.0,-100.00,NW,310,5.0,10.0,97,0.00,,,0.00,0.000000,,2013-04-20 09:43:00,
2013-04-20 04:12:00,24.0,23.0,-100.00,NNW,330,2.0,8.0,96,0.00,,,0.00,0.000000,,2013-04-20 10:12:00,
2013-04-20 04:23:00,24.0,23.0,-100.00,NNW,330,2.0,8.0,96,0.00,,,0.00,0.000000,,2013-04-20 10:23:00,
2013-04-20 04:33:00,24.0,23.0,-100.00,NNW,330,2.0,8.0,96,0.00,,,0.00,0.000000,,2013-04-20 10:33:00,
2013-04-20 04:42:00,24.0,23.0,-100.00,NNW,330,2.0,8.0,96,0.00,,,0.00,0.000000,,2013-04-20 10:42:00,
2013-04-20 05:12:00,24.0,23.0,-100.00,SW,220,0.0,6.0,96,0.00,,,0.00,0.000000,,2013-04-20 11:12:00,
2013-04-20 05:23:00,24.0,23.0,-100.00,SW,220,0.0,6.0,96,0.00,,,0.00,0.000000,,2013-04-20 11:23:00,
2013-04-20 05:31:00,24.0,23.0,-100.00,SW,220,0.0,6.0,96,0.00,,,0.00,0.000000,,2013-04-20 11:31:00,
2013-04-20 05:42:00,24.0,23.0,-100.00,SW,220,0.0,6.0,96,0.00,,,0.00,0.000000,,2013-04-20 11:42:00,
2013-04-20 06:11:00,24.0,23.0,-100.00,SW,223,0.0,5.0,96,0.00,,,0.00,0.000000,,2013-04-20 12:11:00,
2013-04-20 06:22:00,24.0,23.0,-100.00,SW,223,0.0,5.0,96,0.00,,,0.00,0.000000,,2013-04-20 12:22:00,
2013-04-20 06:32:00,24.0,23.0,-100.00,SW,223,0.0,5.0,96,0.00,,,0.00,0.000000,,2013-04-20 12:32:00,
2013-04-20 06:41:00,24.0,23.0,-100.00,SW,223,0.0,5.0,96,0.00,,,0.00,0.000000,,2013-04-20 12:41:00,
2013-04-20 07:11:00,24.0,23.0,-100.00,SW,223,2.0,4.0,95,0.00,,,0.00,1.000000,,2013-04-20 13:11:00,
2013-04-20 07:21:00,24.0,23.0,-100.00,SW,223,2.0,4.0,95,0.00,,,0.00,1.000000,,2013-04-20 13:21:00,
2013-04-20 07:31:00,24.0,23.0,-100.00,SW,223,2.0,4.0,95,0.00,,,0.00,1.000000,,2013-04-20 13:31:00,
2013-04-20 07:42:00,24.0,23.0,-100.00,SW,223,2.0,4.0,95,0.00,,,0.00,1.000000,,2013-04-20 13:42:00,
2013-04-20 08:11:00,27.0,25.0,-100.00,West,272,1.0,4.0,93,0.00,,,0.00,155.000000,,2013-04-20 14:11:00,
2013-04-20 08:21:00,27.0,25.0,-100.00,West,272,1.0,4.0,93,0.00,,,0.00,155.000000,,2013-04-20 14:21:00,
2013-04-20 08:31:00,27.0,25.0,-100.00,West,272,1.0,4.0,93,0.00,,,0.00,155.000000,,2013-04-20 14:31:00,
2013-04-20 08:42:00,27.0,25.0,-100.00,West,272,1.0,4.0,93,0.00,,,0.00,155.000000,,2013-04-20 14:42:00,
2013-04-20 09:11:00,32.0,27.0,-100.00,NW,307,1.0,5.0,81,0.01,,,0.01,234.000000,,2013-04-20 15:11:00,
2013-04-20 09:21:00,32.0,27.0,-100.00,NW,307,1.0,5.0,81,0.01,,,0.01,234.000000,,2013-04-20 15:21:00,
2013-04-20 09:33:00,32.0,27.0,-100.00,NW,307,1.0,5.0,81,0.01,,,0.01,234.000000,,2013-04-20 15:33:00,
2013-04-20 09:43:00,32.0,27.0,-100.00,NW,307,1.0,5.0,81,0.01,,,0.01,234.000000,,2013-04-20 15:43:00,
2013-04-20 10:12:00,35.0,27.0,-100.00,North,8,2.0,7.0,71,0.00,,,0.01,535.000000,,2013-04-20 16:12:00,
2013-04-20 10:23:00,35.0,27.0,-100.00,North,8,2.0,7.0,71,0.00,,,0.01,535.000000,,2013-04-20 16:23:00,
2013-04-20 10:32:00,35.0,27.0,-100.00,North,8,2.0,7.0,71,0.00,,,0.01,535.000000,,2013-04-20 16:32:00,
2013-04-20 10:42:00,35.0,27.0,-100.00,North,8,2.0,7.0,71,0.00,,,0.01,535.000000,,2013-04-20 16:42:00,
2013-04-20 11:12:00,35.0,26.0,-100.00,WNW,295,8.0,13.0,69,0.00,,,0.01,494.000000,,2013-04-20 17:12:00,
2013-04-20 11:22:00,35.0,26.0,-100.00,WNW,295,8.0,13.0,69,0.00,,,0.01,494.000000,,2013-04-20 17:22:00,
2013-04-20 11:32:00,35.0,26.0,-100.00,WNW,295,8.0,13.0,69,0.00,,,0.01,494.000000,,2013-04-20 17:32:00,
2013-04-20 11:42:00,35.0,26.0,-100.00,WNW,295,8.0,13.0,69,0.00,,,0.01,494.000000,,2013-04-20 17:42:00,
2013-04-20 12:12:00,34.0,26.0,-100.00,North,357,6.0,15.0,72,0.00,,,0.01,394.000000,,2013-04-20 18:12:00,
2013-04-20 12:22:00,34.0,26.0,-100.00,North,357,6.0,15.0,72,0.00,,,0.01,394.000000,,2013-04-20 18:22:00,
2013-04-20 12:32:00,34.0,26.0,-100.00,North,357,6.0,15.0,72,0.00,,,0.01,394.000000,,2013-04-20 18:32:00,
2013-04-20 12:41:00,34.0,26.0,-100.00,North,357,6.0,15.0,72,0.00,,,0.01,394.000000,,2013-04-20 18:41:00,
2013-04-20 13:11:00,37.0,26.0,-100.00,WNW,299,9.0,18.0,65,0.02,,,0.03,715.000000,,2013-04-20 19:11:00,
2013-04-20 13:21:00,37.0,26.0,-100.00,WNW,299,9.0,18.0,65,0.02,,,0.03,715.000000,,2013-04-20 19:21:00,
2013-04-20 13:31:00,37.0,26.0,-100.00,WNW,299,9.0,18.0,65,0.02,,,0.03,715.000000,,2013-04-20 19:31:00,
2013-04-20 13:42:00,37.0,26.0,-100.00,WNW,299,9.0,18.0,65,0.02,,,0.03,715.000000,,2013-04-20 19:42:00,
2013-04-20 14:12:00,42.0,29.0,-100.00,SE,141,6.0,23.0,59,0.00,,,0.03,1137.000000,,2013-04-20 20:12:00,
2013-04-20 14:21:00,42.0,29.0,-100.00,SE,141,6.0,23.0,59,0.00,,,0.03,1137.000000,,2013-04-20 20:21:00,
2013-04-20 14:32:00,42.0,29.0,-100.00,SE,141,6.0,23.0,59,0.00,,,0.03,1137.000000,,2013-04-20 20:32:00,
2013-04-20 14:42:00,42.0,29.0,-100.00,SE,141,6.0,23.0,59,0.00,,,0.03,1137.000000,,2013-04-20 20:42:00,
2013-04-20 15:12:00,40.0,25.0,-100.00,WSW,253,8.0,16.0,54,0.00,,,0.03,691.000000,,2013-04-20 21:12:00,
2013-04-20 15:21:00,40.0,25.0,-100.00,WSW,253,8.0,16.0,54,0.00,,,0.03,691.000000,,2013-04-20 21:21:00,
2013-04-20 15:32:00,40.0,25.0,-100.00,WSW,253,8.0,16.0,54,0.00,,,0.03,691.000000,,2013-04-20 21:32:00,
2013-04-20 15:43:00,40.0,25.0,-100.00,WSW,253,8.0,16.0,54,0.00,,,0.03,691.000000,,2013-04-20 21:43:00,
2013-04-20 16:12:00,42.0,27.0,-100.00,WNW,295,9.0,22.0,55,0.00,,,0.03,902.000000,,2013-04-20 22:12:00,
2013-04-20 16:22:00,42.0,27.0,-100.00,WNW,295,9.0,22.0,55,0.00,,,0.03,902.000000,,2013-04-20 22:22:00,
2013-04-20 16:32:00,42.0,27.0,-100.00,WNW,295,9.0,22.0,55,0.00,,,0.03,902.000000,,2013-04-20 22:32:00,
2013-04-20 16:42:00,42.0,27.0,-100.00,WNW,295,9.0,22.0,55,0.00,,,0.03,902.000000,,2013-04-20 22:42:00,
2013-04-20 17:11:00,42.0,25.0,-100.00,NW,310,10.0,24.0,50,0.00,,,0.03,607.000000,,2013-04-20 23:11:00,
2013-04-20 17:22:00,42.0,25.0,-100.00,NW,310,10.0,24.0,50,0.00,,,0.03,607.000000,,2013-04-20 23:22:00,
2013-04-20 17:32:00,42.0,25.0,-100.00,NW,310,10.0,24.0,50,0.00,,,0.03,607.000000,,2013-04-20 23:32:00,
2013-04-20 17:41:00,42.0,25.0,-100.00,NW,310,10.0,24.0,50,0.00,,,0.03,607.000000,,2013-04-20 23:41:00,
2013-04-20 18:11:00,38.0,24.0,-100.00,WNW,294,9.0,19.0,57,0.00,,,0.03,459.000000,,2013-04-21 00:11:00,
2013-04-20 18:21:00,38.0,24.0,-100.00,WNW,294,9.0,19.0,57,0.00,,,0.03,459.000000,,2013-04-21 00:21:00,
2013-04-20 18:32:00,38.0,24.0,-100.00,WNW,294,9.0,19.0,57,0.00,,,0.03,459.000000,,2013-04-21 00:32:00,
2013-04-20 18:41:00,38.0,24.0,-100.00,WNW,294,9.0,19.0,57,0.00,,,0.03,459.000000,,2013-04-21 00:41:00,
2013-04-20 19:11:00,36.0,24.0,-100.00,West,281,12.0,20.0,62,0.00,,,0.03,234.000000,,2013-04-21 01:11:00,
2013-04-20 19:21:00,36.0,24.0,-100.00,West,281,12.0,20.0,62,0.00,,,0.03,234.000000,,2013-04-21 01:21:00,
2013-04-20 19:31:00,36.0,24.0,-100.00,West,281,12.0,20.0,62,0.00,,,0.03,234.000000,,2013-04-21 01:31:00,
2013-04-20 19:41:00,36.0,24.0,-100.00,West,281,12.0,20.0,62,0.00,,,0.03,234.000000,,2013-04-21 01:41:00,
2013-04-20 20:11:00,33.0,25.0,-100.00,West,281,8.0,19.0,73,0.00,,,0.03,60.000000,,2013-04-21 02:11:00,
2013-04-20 20:21:00,33.0,25.0,-100.00,West,281,8.0,19.0,73,0.00,,,0.03,60.000000,,2013-04-21 02:21:00,
2013-04-20 20:31:00,33.0,25.0,-100.00,West,281,8.0,19.0,73,0.00,,,0.03,60.000000,,2013-04-21 02:31:00,
2013-04-20 20:41:00,33.0,25.0,-100.00,West,281,8.0,19.0,73,0.00,,,0.03,60.000000,,2013-04-21 02:41:00,
2013-04-20 21:11:00,32.0,25.0,-100.00,WNW,301,7.0,18.0,76,0.00,,,0.03,0.000000,,2013-04-21 03:11:00,
2013-04-20 21:21:00,32.0,25.0,-100.00,WNW,301,7.0,18.0,76,0.00,,,0.03,0.000000,,2013-04-21 03:21:00,
2013-04-20 21:32:00,32.0,25.0,-100.00,WNW,301,7.0,18.0,76,0.00,,,0.03,0.000000,,2013-04-21 03:32:00,
2013-04-20 21:42:00,32.0,25.0,-100.00,WNW,301,7.0,18.0,76,0.00,,,0.03,0.000000,,2013-04-21 03:42:00,
2013-04-20 22:12:00,31.0,28.0,-100.00,WSW,258,16.0,26.0,89,0.00,,,0.03,0.000000,,2013-04-21 04:12:00,
2013-04-20 22:22:00,31.0,28.0,-100.00,WSW,258,16.0,26.0,89,0.00,,,0.03,0.000000,,2013-04-21 04:22:00,
2013-04-20 22:33:00,31.0,28.0,-100.00,WSW,258,16.0,26.0,89,0.00,,,0.03,0.000000,,2013-04-21 04:33:00,
2013-04-20 22:42:00,31.0,28.0,-100.00,WSW,258,16.0,26.0,89,0.00,,,0.03,0.000000,,2013-04-21 04:42:00,
2013-04-20 23:12:00,30.0,28.0,-100.00,WSW,254,11.0,20.0,91,0.00,,,0.03,0.000000,,2013-04-21 05:12:00,
2013-04-20 23:22:00,30.0,28.0,-100.00,WSW,254,11.0,20.0,91,0.00,,,0.03,0.000000,,2013-04-21 05:22:00,
2013-04-20 23:32:00,30.0,28.0,-100.00,WSW,254,11.0,20.0,91,0.00,,,0.03,0.000000,,2013-04-21 05:32:00,
2013-04-20 23:42:00,30.0,28.0,-100.00,WSW,254,11.0,20.0,91,0.00,,,0.03,0.000000,,2013-04-21 05:42:00,